El-djazair II — 7TBR — position and weather

sailwx.info

Track history (hours):
 
Tides and Currents Weather Stations Pressure Air Temp Water Temp Dewpoint Dewpoint Depression Visibility Wind Speed Wind Dir Waves Ship Positions

El-djazair II

Last reported at 2014-Sep-29 23:09 UTC. Time now 2014-Sep-30 12:04 UTC.
Position N 37°27' W 000°15'.

Length 146 m; draft 6.3 m.

Type: Passenger vessel. MMSI: 605026190.

Date/timePositionNaut miles runAvg speedWind from/ knotsBaromVisibWave heightAir tempDewpointWater temp
2014-Sep-29 23:09N 37°27' W 000°15'52 2.9
2014-Sep-29 05:15N 38°19' W 000°23'29 9.5
2014-Sep-29 02:12N 37°51' W 000°10'1218.6
2014-Sep-29 01:33N 37°39' W 000°12'1919.1
2014-Sep-29 00:32N 37°20' W 000°16'  
2014-Sep-25 04:21N 38°05' W 000°07'2220.3
2014-Sep-25 03:17N 37°43' W 000°12'50 2.0
2014-Sep-24 02:07N 38°14' E 000°39'1523.6
2014-Sep-24 01:29N 38°28' E 000°46'2323.7
2014-Sep-24 00:32N 38°49' E 000°56'2323.4
2014-Sep-23 23:32N 39°09' E 001°11'2323.5
2014-Sep-23 22:33N 39°27' E 001°29'2423.6
2014-Sep-23 21:33N 39°46' E 001°48'2323.5
2014-Sep-23 20:33N 40°05' E 002°06'2423.8
2014-Sep-23 19:33N 40°24' E 002°25'2323.4
2014-Sep-23 18:33N 40°43' E 002°44'2323.3
2014-Sep-23 17:34N 41°01' E 003°02'2823.2
2014-Sep-23 16:21N 41°23' E 003°25'2022.9
2014-Sep-23 15:29N 41°39' E 003°41'2322.8
2014-Sep-23 14:29N 41°58' E 003°59'2123.1
2014-Sep-23 13:33N 42°15' E 004°16'2423.5
2014-Sep-23 12:33N 42°34' E 004°35'2523.0
2014-Sep-23 11:28N 42°54' E 004°54'2123.0
2014-Sep-23 10:33N 43°11' E 005°11'10 0.4
2014-Sep-22 06:32N 43°18' E 005°22'1717.0
2014-Sep-22 05:32N 43°01' E 005°23'2423.2
2014-Sep-22 04:31N 42°39' E 005°33'2222.8
2014-Sep-22 03:33N 42°17' E 005°42'2222.6
2014-Sep-22 02:33N 41°56' E 005°51'2322.9
2014-Sep-22 01:33N 41°34' E 006°00'4723.6
2014-Sep-21 23:33N 40°49' E 006°19'14323.8
2014-Sep-21 17:31N 38°32' E 007°14'1919.7
2014-Sep-21 16:33N 38°14' E 007°21'82 2.5
2014-Sep-20 07:31N 36°54' E 007°47'7121.1
2014-Sep-20 04:09N 38°03' E 007°25'4122.2
2014-Sep-20 02:17N 38°43' E 007°09'1722.6
2014-Sep-20 01:32N 38°59' E 007°03'2723.0
2014-Sep-20 00:22N 39°24' E 006°52'2023.4
2014-Sep-19 23:32N 39°43' E 006°45'  
Track history (hours):
 
Tides and Currents Weather Stations Pressure Air Temp Water Temp Dewpoint Dewpoint Depression Visibility Wind Speed Wind Dir Waves Ship Positions

El-djazair II

Last reported at 2014-Sep-29 23:09 UTC. Time now 2014-Sep-30 12:04 UTC.
Position N 37°27' W 000°15'.

Length 146 m; draft 6.3 m.

Type: Passenger vessel. MMSI: 605026190.

Date/timePositionNaut miles runAvg speedWind from/ knotsBaromVisibWave heightAir tempDewpointWater temp
2014-Sep-29 23:09N 37°27' W 000°15'52 2.9
2014-Sep-29 05:15N 38°19' W 000°23'29 9.5
2014-Sep-29 02:12N 37°51' W 000°10'1218.6
2014-Sep-29 01:33N 37°39' W 000°12'1919.1
2014-Sep-29 00:32N 37°20' W 000°16'  
2014-Sep-25 04:21N 38°05' W 000°07'2220.3
2014-Sep-25 03:17N 37°43' W 000°12'50 2.0
2014-Sep-24 02:07N 38°14' E 000°39'1523.6
2014-Sep-24 01:29N 38°28' E 000°46'2323.7
2014-Sep-24 00:32N 38°49' E 000°56'2323.4
2014-Sep-23 23:32N 39°09' E 001°11'2323.5
2014-Sep-23 22:33N 39°27' E 001°29'2423.6
2014-Sep-23 21:33N 39°46' E 001°48'2323.5
2014-Sep-23 20:33N 40°05' E 002°06'2423.8
2014-Sep-23 19:33N 40°24' E 002°25'2323.4
2014-Sep-23 18:33N 40°43' E 002°44'2323.3
2014-Sep-23 17:34N 41°01' E 003°02'2823.2
2014-Sep-23 16:21N 41°23' E 003°25'2022.9
2014-Sep-23 15:29N 41°39' E 003°41'2322.8
2014-Sep-23 14:29N 41°58' E 003°59'2123.1
2014-Sep-23 13:33N 42°15' E 004°16'2423.5
2014-Sep-23 12:33N 42°34' E 004°35'2523.0
2014-Sep-23 11:28N 42°54' E 004°54'2123.0
2014-Sep-23 10:33N 43°11' E 005°11'10 0.4
2014-Sep-22 06:32N 43°18' E 005°22'1717.0
2014-Sep-22 05:32N 43°01' E 005°23'2423.2
2014-Sep-22 04:31N 42°39' E 005°33'2222.8
2014-Sep-22 03:33N 42°17' E 005°42'2222.6
2014-Sep-22 02:33N 41°56' E 005°51'2322.9
2014-Sep-22 01:33N 41°34' E 006°00'4723.6
2014-Sep-21 23:33N 40°49' E 006°19'14323.8
2014-Sep-21 17:31N 38°32' E 007°14'1919.7
2014-Sep-21 16:33N 38°14' E 007°21'82 2.5
2014-Sep-20 07:31N 36°54' E 007°47'7121.1
2014-Sep-20 04:09N 38°03' E 007°25'4122.2
2014-Sep-20 02:17N 38°43' E 007°09'1722.6
2014-Sep-20 01:32N 38°59' E 007°03'2723.0
2014-Sep-20 00:22N 39°24' E 006°52'2023.4
2014-Sep-19 23:32N 39°43' E 006°45'  

Dump ship's entire track history